Time;durP1;ratioP1;P1;durP2;ratioP2;P2;SDS_P1;SDS_P2;PMS_P1;PMS_P2;Temp;Humidity;BMP_temperature;BMP_pressure;BME280_temperature;BME280_humidity;BME280_pressure;Samples;Min_cycle;Max_cycle;Signal;HPM_P1;HPM_P2
2021/10/20 00:02:21;;;;;;;2.00;1.60;;;;;;;13.64;78.21;96064.72;6122569;23;20732;-90
2021/10/20 00:04:49;;;;;;;1.83;1.73;;;;;;;13.58;78.07;96063.66;6122128;23;20196;-90
2021/10/20 00:07:18;;;;;;;2.10;1.90;;;;;;;13.57;78.71;96056.88;6121888;23;20168;-90
2021/10/20 00:09:45;;;;;;;1.80;1.70;;;;;;;13.61;78.09;96047.78;6122050;23;20175;-90
2021/10/20 00:12:11;;;;;;;2.00;1.83;;;;;;;13.58;77.78;96047.34;6122266;23;20176;-90
2021/10/20 00:14:38;;;;;;;2.90;1.90;;;;;;;13.60;77.78;96050.53;6120879;23;20218;-90
2021/10/20 00:17:05;;;;;;;3.27;1.60;;;;;;;13.61;77.34;96046.97;6122281;23;20179;-90
2021/10/20 00:19:31;;;;;;;2.90;1.60;;;;;;;13.62;78.02;96039.03;6122208;23;20184;-90
2021/10/20 00:21:59;;;;;;;2.07;1.83;;;;;;;13.62;77.70;96045.97;6121810;23;20660;-91
2021/10/20 00:24:26;;;;;;;2.00;1.73;;;;;;;13.63;77.94;96039.81;6121231;23;20876;-90
2021/10/20 00:26:52;;;;;;;1.93;1.80;;;;;;;13.62;78.38;96036.44;6121919;23;20176;-90
2021/10/20 00:29:19;;;;;;;1.70;1.60;;;;;;;13.59;78.47;96033.41;6122057;23;20176;-90
2021/10/20 00:31:45;;;;;;;2.30;1.93;;;;;;;13.59;78.14;96025.66;6121768;23;20652;-90
2021/10/20 00:34:12;;;;;;;1.70;1.60;;;;;;;13.62;77.96;96027.88;6121690;23;20206;-90
2021/10/20 00:36:43;;;;;;;1.77;1.63;;;;;;;13.61;78.40;96018.50;6121926;23;20187;-90
2021/10/20 00:39:11;;;;;;;3.33;1.57;;;;;;;13.62;78.35;96014.94;6120911;23;20180;-90
2021/10/20 00:41:37;;;;;;;1.77;1.67;;;;;;;13.63;78.24;96012.16;6122031;23;20172;-90
2021/10/20 00:44:04;;;;;;;2.70;1.53;;;;;;;13.62;78.23;96004.59;6121208;23;20207;-90
2021/10/20 00:46:32;;;;;;;2.57;1.87;;;;;;;13.62;77.78;96005.38;6121757;23;20198;-90
2021/10/20 00:48:59;;;;;;;1.83;1.50;;;;;;;13.61;77.98;96005.56;6121889;23;20176;-89
2021/10/20 00:51:26;;;;;;;1.80;1.70;;;;;;;13.60;78.36;96002.19;6121818;23;20171;-91
2021/10/20 00:53:57;;;;;;;1.90;1.60;;;;;;;13.63;77.95;95995.84;6121128;23;20195;-90
2021/10/20 00:56:25;;;;;;;1.70;1.60;;;;;;;13.62;78.16;95994.25;6121621;23;20168;-91
2021/10/20 00:58:53;;;;;;;2.00;1.40;;;;;;;13.62;78.29;96002.00;6121727;23;20171;-90
2021/10/20 01:01:19;;;;;;;1.33;1.23;;;;;;;13.62;78.20;95989.06;6121965;23;20175;-90
2021/10/20 01:03:55;;;;;;;1.60;1.50;;;;;;;13.59;78.10;95990.22;6122556;23;20206;-90
2021/10/20 01:06:23;;;;;;;2.93;1.40;;;;;;;13.59;78.04;95979.06;6123839;23;20159;-90
2021/10/20 01:08:49;;;;;;;1.50;1.40;;;;;;;13.62;77.74;95978.72;6123195;23;20175;-90
2021/10/20 01:11:16;;;;;;;2.23;1.40;;;;;;;13.61;77.93;95971.94;6123680;23;20176;-90
2021/10/20 01:13:46;;;;;;;1.70;1.60;;;;;;;13.62;77.70;95966.56;6123600;23;20221;-90
2021/10/20 01:16:13;;;;;;;1.70;1.60;;;;;;;13.61;78.19;95971.94;6122998;23;20272;-90
2021/10/20 01:18:40;;;;;;;1.40;1.30;;;;;;;13.58;78.18;95960.16;6123914;23;20179;-90
2021/10/20 01:21:06;;;;;;;1.40;1.30;;;;;;;13.59;77.98;95955.78;6124022;23;20486;-90
2021/10/20 01:23:35;;;;;;;1.50;1.40;;;;;;;13.60;78.21;95954.81;6123779;23;20191;-90
2021/10/20 01:26:01;;;;;;;1.90;1.50;;;;;;;13.58;78.06;95957.56;6123709;23;20591;-90
2021/10/20 01:28:28;;;;;;;1.83;1.40;;;;;;;13.60;77.86;95957.41;6123463;23;20664;-90
2021/10/20 01:30:54;;;;;;;2.40;1.40;;;;;;;13.60;78.06;95949.63;6123142;23;20924;-90
2021/10/20 01:33:23;;;;;;;1.50;1.40;;;;;;;13.58;78.19;95949.81;6123071;23;20521;-90
2021/10/20 01:35:49;;;;;;;1.30;1.20;;;;;;;13.56;78.35;95935.47;6123192;23;20764;-91
2021/10/20 01:38:16;;;;;;;1.40;1.30;;;;;;;13.57;78.15;95937.88;6123638;23;20176;-90
2021/10/20 01:40:43;;;;;;;1.43;1.33;;;;;;;13.59;78.21;95929.91;6123067;23;20180;-90
2021/10/20 01:43:10;;;;;;;2.60;1.37;;;;;;;13.58;77.93;95929.13;6123132;23;20196;-90
2021/10/20 01:45:37;;;;;;;1.70;1.40;;;;;;;13.54;78.25;95927.88;6122641;23;20576;-90
2021/10/20 01:48:04;;;;;;;2.50;1.20;;;;;;;13.51;78.48;95922.28;6123146;23;20254;-90
2021/10/20 01:50:30;;;;;;;1.60;1.40;;;;;;;13.54;78.36;95924.50;6123234;23;20193;-91
2021/10/20 01:52:57;;;;;;;4.60;1.17;;;;;;;13.56;78.03;95922.53;6123138;23;20606;-90
2021/10/20 01:55:23;;;;;;;2.47;1.23;;;;;;;13.59;78.38;95917.78;6122970;23;20195;-90
2021/10/20 01:57:51;;;;;;;3.20;1.37;;;;;;;13.61;78.37;95912.44;6123385;23;20176;-91
2021/10/20 02:00:19;;;;;;;1.73;1.20;;;;;;;13.61;78.19;95909.84;6123271;23;20179;-91
2021/10/20 02:02:46;;;;;;;5.00;1.30;;;;;;;13.58;77.83;95898.06;6123049;23;20171;-90
2021/10/20 02:05:19;;;;;;;1.30;1.20;;;;;;;13.57;78.35;95895.66;6123231;23;20665;-90
2021/10/20 02:07:45;;;;;;;1.80;1.30;;;;;;;13.58;78.27;95895.47;6123651;23;20176;-90
2021/10/20 02:10:15;;;;;;;1.47;1.20;;;;;;;13.60;77.79;95901.28;6123530;23;20625;-90
2021/10/20 02:12:41;;;;;;;1.63;1.30;;;;;;;13.60;78.11;95890.94;6123401;23;20626;-90
2021/10/20 02:15:10;;;;;;;1.47;1.23;;;;;;;13.60;78.32;95884.94;6121834;23;20203;-90
2021/10/20 02:17:37;;;;;;;1.30;1.20;;;;;;;13.59;78.48;95883.34;6122869;23;20246;-90
2021/10/20 02:20:07;;;;;;;1.57;1.30;;;;;;;13.58;78.28;95876.56;6123054;23;20505;-90
2021/10/20 02:22:35;;;;;;;1.40;1.30;;;;;;;13.58;77.95;95879.16;6122896;23;20164;-90
2021/10/20 02:25:02;;;;;;;1.07;1.00;;;;;;;13.51;78.71;95866.16;6122533;23;20199;-91
2021/10/20 02:27:28;;;;;;;1.40;1.30;;;;;;;13.50;78.86;95867.16;6123317;23;20175;-91
2021/10/20 02:29:57;;;;;;;4.20;1.30;;;;;;;13.47;78.92;95865.72;6122798;23;20525;-90
2021/10/20 02:32:30;;;;;;;1.20;1.10;;;;;;;13.47;78.68;95860.56;6123191;23;20174;-90
2021/10/20 02:34:57;;;;;;;1.17;1.07;;;;;;;13.50;78.65;95856.81;6122673;23;20528;-90
2021/10/20 02:37:23;;;;;;;1.37;1.13;;;;;;;13.52;78.41;95854.84;6122724;23;20691;-90
2021/10/20 02:39:50;;;;;;;1.50;1.30;;;;;;;13.55;78.43;95853.66;6122939;23;20187;-90
2021/10/20 02:42:18;;;;;;;2.27;1.20;;;;;;;13.54;78.31;95845.09;6123277;23;20183;-90
2021/10/20 02:44:46;;;;;;;1.03;1.00;;;;;;;13.52;78.63;95846.28;6122395;23;20203;-90
2021/10/20 02:47:12;;;;;;;1.53;1.10;;;;;;;13.51;78.30;95857.59;6122566;23;20185;-91
2021/10/20 02:49:44;;;;;;;1.57;1.10;;;;;;;13.50;78.34;95841.28;6123325;23;20167;-89
2021/10/20 02:52:13;;;;;;;1.40;1.23;;;;;;;13.44;78.52;95848.03;6122632;23;20598;-91
2021/10/20 02:54:39;;;;;;;1.20;1.10;;;;;;;13.36;78.74;95842.19;6122601;23;20195;-91
2021/10/20 02:57:06;;;;;;;1.33;1.10;;;;;;;13.34;78.92;95842.38;6122869;23;20179;-90
2021/10/20 02:59:39;;;;;;;1.50;1.27;;;;;;;13.31;79.23;95844.50;6122549;23;20176;-88
2021/10/20 03:02:08;;;;;;;1.40;1.30;;;;;;;13.29;79.29;95842.13;6122712;23;20171;-91
2021/10/20 03:04:50;;;;;;;1.87;1.10;;;;;;;13.26;79.19;95839.94;6122446;23;20282;-90
2021/10/20 03:07:29;;;;;;;1.33;1.23;;;;;;;13.26;79.45;95831.38;6122393;23;20649;-90
2021/10/20 03:09:59;;;;;;;1.30;1.20;;;;;;;13.27;79.13;95830.38;6123185;23;20171;-90
2021/10/20 03:12:35;;;;;;;1.40;1.30;;;;;;;13.21;79.08;95826.75;6122248;23;20175;-90
2021/10/20 03:15:02;;;;;;;2.37;1.30;;;;;;;13.17;79.69;95828.09;6121535;23;20206;-91
2021/10/20 03:17:48;;;;;;;1.57;1.20;;;;;;;13.21;79.36;95824.16;6123064;23;20195;-90
2021/10/20 03:20:47;;;;;;;2.17;1.30;;;;;;;13.21;79.06;95820.78;6123039;23;20506;-90
2021/10/20 03:23:13;;;;;;;1.83;1.30;;;;;;;13.26;79.20;95816.66;6121915;23;20641;-89
2021/10/20 03:25:40;;;;;;;1.23;1.13;;;;;;;13.27;78.85;95810.50;6122133;23;20199;-90
2021/10/20 03:28:06;;;;;;;1.57;1.20;;;;;;;13.27;79.01;95820.84;6122462;23;20199;-91
2021/10/20 03:30:35;;;;;;;2.00;1.23;;;;;;;13.26;79.05;95811.47;6122492;23;20168;-90
2021/10/20 03:33:01;;;;;;;1.77;1.30;;;;;;;13.25;78.76;95806.50;6122862;23;20175;-90
2021/10/20 03:35:34;;;;;;;1.53;1.43;;;;;;;13.24;79.15;95799.72;6122354;23;20202;-91
2021/10/20 03:38:03;;;;;;;1.63;1.40;;;;;;;13.23;79.05;95804.09;6122252;23;20160;-90
2021/10/20 03:40:29;;;;;;;1.50;1.40;;;;;;;13.17;79.10;95802.25;6122038;23;20187;-90
2021/10/20 03:42:56;;;;;;;1.77;1.43;;;;;;;13.10;79.54;95799.56;6122399;23;20179;-90
2021/10/20 03:45:22;;;;;;;1.50;1.40;;;;;;;13.09;79.52;95800.56;6121339;23;20204;-91
2021/10/20 03:48:03;;;;;;;1.47;1.37;;;;;;;13.07;79.29;95794.78;6122265;23;20194;-89
2021/10/20 03:50:30;;;;;;;1.53;1.30;;;;;;;13.07;79.24;95794.78;6121875;23;20183;-89
2021/10/20 03:52:57;;;;;;;1.90;1.30;;;;;;;13.08;79.37;95788.59;6122482;23;20176;-90
2021/10/20 03:55:30;;;;;;;2.07;1.23;;;;;;;13.09;79.32;95787.63;6122216;23;20192;-90
2021/10/20 03:57:58;;;;;;;1.40;1.23;;;;;;;13.09;79.35;95776.47;6122384;23;20152;-90
2021/10/20 04:00:31;;;;;;;1.30;1.20;;;;;;;13.08;79.53;95782.66;6122269;23;20183;-90
2021/10/20 04:02:58;;;;;;;1.30;1.20;;;;;;;13.10;79.43;95778.88;6122724;23;20167;-91
2021/10/20 04:05:27;;;;;;;2.13;1.50;;;;;;;13.13;79.41;95772.53;6122519;23;20207;-91
2021/10/20 04:07:54;;;;;;;1.40;1.30;;;;;;;13.14;78.97;95768.97;6122143;23;20183;-90
2021/10/20 04:10:23;;;;;;;1.40;1.30;;;;;;;13.12;79.24;95766.56;6122338;23;20190;-90
2021/10/20 04:12:51;;;;;;;1.97;1.30;;;;;;;13.14;78.83;95761.22;6122536;23;20182;-91
2021/10/20 04:15:20;;;;;;;1.33;1.13;;;;;;;13.10;79.15;95754.81;6121113;23;20289;-91
2021/10/20 04:17:48;;;;;;;3.17;1.30;;;;;;;13.11;78.71;95756.41;6121892;23;20793;-91
2021/10/20 04:20:15;;;;;;;1.60;1.27;;;;;;;13.10;78.89;95754.81;6122424;23;20254;-91
2021/10/20 04:22:43;;;;;;;1.40;1.30;;;;;;;13.05;78.65;95757.19;6121153;23;20171;-91
2021/10/20 04:28:03;;;;;;;2.13;1.60;;;;;;;13.14;83.04;95740.53;6119615;23;20175;-92
2021/10/20 04:30:38;;;;;;;1.83;1.57;;;;;;;13.18;79.32;95728.06;6120859;23;20205;-91
2021/10/20 04:33:18;;;;;;;1.30;1.20;;;;;;;13.17;78.73;95732.44;6121782;23;20182;-90
2021/10/20 04:35:44;;;;;;;1.53;1.33;;;;;;;13.13;78.43;95720.84;6121578;23;20506;-89
2021/10/20 04:38:11;;;;;;;1.97;1.53;;;;;;;13.08;78.49;95718.81;6122363;23;20182;-85
2021/10/20 04:40:37;;;;;;;2.00;1.33;;;;;;;13.04;78.68;95722.78;6120849;23;20210;-85
2021/10/20 04:43:05;;;;;;;2.23;1.40;;;;;;;13.01;78.84;95712.03;6122313;23;20163;-85
2021/10/20 04:45:33;;;;;;;1.50;1.30;;;;;;;12.94;79.22;95711.97;6122955;23;20210;-85
2021/10/20 04:47:59;;;;;;;1.50;1.40;;;;;;;12.96;79.55;95715.16;6123726;23;20262;-85
2021/10/20 04:50:25;;;;;;;2.17;1.63;;;;;;;12.93;79.12;95710.38;6123333;23;20167;-85
2021/10/20 04:52:52;;;;;;;1.97;1.50;;;;;;;12.92;79.22;95706.19;6124496;23;20180;-84
2021/10/20 04:55:18;;;;;;;1.60;1.30;;;;;;;12.90;79.85;95695.22;6122703;23;20191;-84
2021/10/20 04:57:48;;;;;;;3.37;1.50;;;;;;;12.96;80.35;95699.66;6122213;23;20183;-84
2021/10/20 05:00:17;;;;;;;2.13;1.43;;;;;;;13.02;79.65;95705.88;6124081;23;20203;-85
2021/10/20 05:02:43;;;;;;;1.97;1.47;;;;;;;13.03;80.33;95689.38;6126378;23;20731;-85
2021/10/20 05:05:10;;;;;;;1.70;1.60;;;;;;;13.04;80.28;95680.63;6123708;23;20569;-86
2021/10/20 05:07:46;;;;;;;1.90;1.50;;;;;;;13.09;80.95;95680.84;6125117;23;20235;-86
2021/10/20 05:10:12;;;;;;;2.10;1.53;;;;;;;13.09;80.31;95683.41;6121183;23;20606;-83
2021/10/20 05:12:39;;;;;;;2.40;1.30;;;;;;;13.11;80.00;95671.09;6121425;23;20567;-86
2021/10/20 05:15:05;;;;;;;1.50;1.40;;;;;;;13.12;79.90;95680.47;6121321;23;20195;-86
2021/10/20 05:17:33;;;;;;;2.40;1.57;;;;;;;13.13;79.35;95676.88;6121930;23;20179;-85
2021/10/20 05:19:59;;;;;;;3.87;1.60;;;;;;;13.12;79.40;95676.09;6120712;23;20176;-85
2021/10/20 05:22:26;;;;;;;1.50;1.40;;;;;;;13.10;79.38;95677.25;6120830;23;20187;-84
2021/10/20 05:24:52;;;;;;;3.90;1.60;;;;;;;13.06;79.48;95678.66;6122091;23;20199;-83
2021/10/20 05:27:19;;;;;;;1.90;1.70;;;;;;;12.99;79.86;95677.81;6123954;23;20179;-84
2021/10/20 05:29:45;;;;;;;2.37;1.90;;;;;;;12.98;80.00;95677.00;6121316;23;20176;-84
2021/10/20 05:32:11;;;;;;;1.90;1.70;;;;;;;12.95;80.39;95679.97;6122016;23;20183;-82
2021/10/20 05:34:39;;;;;;;2.90;1.70;;;;;;;12.94;80.04;95682.72;6122832;23;20262;-84
2021/10/20 05:37:06;;;;;;;2.93;1.67;;;;;;;12.93;80.17;95686.31;6122913;23;20548;-82
2021/10/20 05:39:32;;;;;;;1.73;1.53;;;;;;;12.88;80.09;95686.09;6121881;23;20176;-84
2021/10/20 05:41:59;;;;;;;2.37;1.60;;;;;;;12.84;80.24;95687.44;6119934;23;20180;-85
2021/10/20 05:44:25;;;;;;;1.73;1.43;;;;;;;12.82;79.94;95695.38;6119347;23;20203;-81
2021/10/20 05:46:52;;;;;;;2.70;1.50;;;;;;;12.79;80.24;95693.16;6123803;23;20188;-84
2021/10/20 05:49:18;;;;;;;1.63;1.47;;;;;;;12.74;80.46;95695.50;6124937;23;20176;-85
2021/10/20 05:51:46;;;;;;;2.30;1.67;;;;;;;12.75;80.32;95697.91;6124279;23;20184;-85
2021/10/20 05:54:13;;;;;;;1.83;1.30;;;;;;;12.72;80.48;95705.22;6125521;23;20200;-84
2021/10/20 05:56:39;;;;;;;2.63;1.93;;;;;;;12.67;81.07;95698.06;6125420;23;20179;-84
2021/10/20 05:59:06;;;;;;;2.40;1.97;;;;;;;12.70;81.15;95696.88;6124793;23;20179;-86
2021/10/20 06:01:32;;;;;;;2.33;1.50;;;;;;;12.65;81.52;95683.72;6122137;23;20255;-87
2021/10/20 06:04:01;;;;;;;1.70;1.57;;;;;;;12.48;83.38;95687.56;6121883;23;20204;-87
2021/10/20 06:06:28;;;;;;;2.70;1.50;;;;;;;12.43;83.48;95688.91;6122550;23;20207;-86
2021/10/20 06:08:56;;;;;;;1.73;1.57;;;;;;;12.48;83.30;95685.78;6122598;23;20645;-86
2021/10/20 06:11:23;;;;;;;5.93;5.50;;;;;;;12.65;82.68;95683.72;6121911;23;20184;-87
2021/10/20 06:13:49;;;;;;;4.37;2.90;;;;;;;12.98;81.05;95691.72;6121710;23;20845;-85
2021/10/20 06:16:16;;;;;;;3.50;2.93;;;;;;;13.33;79.92;95682.22;6122804;23;20176;-86
2021/10/20 06:18:42;;;;;;;2.30;1.97;;;;;;;13.78;77.52;95675.66;6123236;23;20226;-86
2021/10/20 06:21:09;;;;;;;2.27;1.83;;;;;;;14.07;75.93;95671.94;6121866;23;20183;-85
2021/10/20 06:28:16;;;;;;;8.07;3.13;;;;;;;15.34;74.19;95672.56;5893398;24;20188;-87
2021/10/20 06:33:51;;;;;;;3.53;2.00;;;;;;;15.73;68.13;95660.50;6091452;23;20187;-86
2021/10/20 06:36:22;;;;;;;2.43;1.97;;;;;;;15.68;68.89;95657.72;6123302;23;20199;-86
2021/10/20 06:38:49;;;;;;;3.53;2.00;;;;;;;15.60;68.92;95666.53;6122393;23;20175;-86
2021/10/20 06:41:15;;;;;;;4.83;2.30;;;;;;;15.39;68.82;95662.41;6121509;23;20183;-86
2021/10/20 06:43:42;;;;;;;4.53;2.70;;;;;;;15.36;69.80;95665.41;6121219;23;20179;-86
2021/10/20 06:46:10;;;;;;;4.00;2.30;;;;;;;15.46;69.78;95663.16;6121694;23;20285;-86
2021/10/20 06:48:37;;;;;;;4.77;2.50;;;;;;;15.77;69.08;95657.28;6123006;23;20191;-86
2021/10/20 06:51:09;;;;;;;7.22;2.55;;;;;;;16.22;67.59;95659.84;6122760;23;20175;-92
2021/10/20 06:53:43;;;;;;;5.17;2.67;;;;;;;16.66;66.16;95663.38;6126982;23;20159;-92
2021/10/20 06:56:15;;;;;;;7.63;2.77;;;;;;;17.02;65.27;95665.25;6124061;23;20179;-85
2021/10/20 08:18:08;;;;;;;3.35;2.05;;;;;;;21.71;50.80;95666.19;5788055;24;20201;-82
2021/10/20 08:40:17;;;;;;;4.43;1.75;;;;;;;21.55;47.84;95662.56;6032259;23;20212;-82
2021/10/20 08:46:45;;;;;;;4.40;1.20;;;;;;;21.53;48.32;95659.44;5947911;24;20406;-82
2021/10/20 09:13:10;;;;;;;3.38;1.58;;;;;;;21.78;44.48;95639.78;5961443;23;20821;-82
2021/10/20 09:15:48;;;;;;;1.50;1.23;;;;;;;21.64;43.10;95637.53;6045444;23;20265;-82
2021/10/20 09:18:17;;;;;;;2.38;1.30;;;;;;;21.59;44.56;95634.84;6124024;23;20517;-83
2021/10/20 09:28:17;;;;;;;1.60;1.50;;;;;;;21.35;42.07;95615.19;5875488;24;20663;-82
2021/10/20 11:11:05;;;;;;;1.58;1.48;;;;;;;20.80;43.32;95484.31;4908138;29;20877;-82
2021/10/20 11:18:05;;;;;;;3.30;1.67;;;;;;;20.69;43.18;95465.88;4986644;28;20207;-82
2021/10/20 11:58:46;;;;;;;2.72;1.63;;;;;;;21.18;43.33;95402.28;5918138;24;20394;-82
2021/10/20 13:15:12;;;;;;;2.72;2.40;;;;;;;20.60;46.24;95377.56;5864793;24;20202;-82
2021/10/20 14:12:04;;;;;;;1.80;1.70;;;;;;;19.94;48.00;95356.59;5976176;24;20247;-82
2021/10/20 14:22:17;;;;;;;3.03;2.35;;;;;;;19.71;49.18;95348.13;5945023;24;20291;-82
2021/10/20 14:32:58;;;;;;;5.22;2.25;;;;;;;19.51;49.85;95338.97;5894291;24;20184;-82
2021/10/20 14:59:10;;;;;;;2.90;2.20;;;;;;;19.33;50.25;95329.53;5895032;24;20639;-81
2021/10/20 15:01:36;;;;;;;4.53;2.13;;;;;;;19.38;51.88;95333.25;5921101;23;20219;-81
2021/10/20 15:04:06;;;;;;;2.25;2.05;;;;;;;19.34;51.85;95322.47;5964335;23;20209;-81
2021/10/20 15:06:33;;;;;;;3.40;2.10;;;;;;;19.38;51.91;95315.75;6124716;23;20294;-81
2021/10/20 15:09:00;;;;;;;5.95;2.28;;;;;;;19.33;51.47;95311.25;6151407;23;20202;-83
2021/10/20 15:11:26;;;;;;;4.05;2.40;;;;;;;19.29;51.65;95298.91;6153011;23;20175;-81
2021/10/20 15:17:56;;;;;;;2.60;2.40;;;;;;;19.21;50.51;95296.69;6004595;23;20185;-84
2021/10/20 15:23:49;;;;;;;3.95;2.00;;;;;;;19.23;50.97;95282.38;6100251;23;20199;-84
2021/10/20 15:26:16;;;;;;;2.63;2.40;;;;;;;19.24;50.73;95283.94;6098183;23;20176;-84
2021/10/20 15:36:40;;;;;;;;;;;;;;;;;;;;;
2021/10/20 15:46:23;;;;;;;4.50;2.45;;;;;;;19.13;51.16;95270.97;6058520;23;20223;-82
2021/10/20 15:49:45;;;;;;;;;;;;;;;;;;;;;
2021/10/20 15:52:56;;;;;;;5.70;2.40;;;;;;;19.03;51.44;95260.41;6054494;23;20255;-83
2021/10/20 16:06:30;;;;;;;3.22;2.55;;;;;;;18.86;52.40;95235.06;5890910;24;20721;-82
2021/10/20 16:19:32;;;;;;;3.70;2.25;;;;;;;18.72;52.38;95205.09;5927529;24;20532;-83
2021/10/20 16:26:34;;;;;;;2.60;2.40;;;;;;;18.63;52.74;95204.72;5975880;23;20210;-82
2021/10/20 16:29:05;;;;;;;3.33;2.30;;;;;;;18.67;53.01;95204.22;5982953;23;20257;-82
2021/10/20 16:35:33;;;;;;;3.65;2.30;;;;;;;18.62;53.01;95194.53;5993184;23;20204;-81
2021/10/20 16:45:46;;;;;;;2.58;2.20;;;;;;;18.51;53.54;95195.34;5891743;24;20240;-82
2021/10/20 17:03:07;;;;;;;4.07;2.40;;;;;;;18.37;53.98;95181.81;5903454;23;20209;-81
2021/10/20 17:10:01;;;;;;;2.80;2.60;;;;;;;18.38;53.85;95172.97;5865545;24;20256;-80
2021/10/20 17:16:59;;;;;;;3.95;2.65;;;;;;;18.40;53.67;95165.72;6050038;23;20227;-81
2021/10/20 17:19:31;;;;;;;3.17;2.50;;;;;;;18.37;53.90;95166.16;5989997;23;20233;-81
2021/10/20 17:45:21;;;;;;;4.10;2.58;;;;;;;18.16;54.75;95149.38;5797742;24;20205;-80
2021/10/20 18:10:24;;;;;;;4.05;2.40;;;;;;;18.05;55.54;95129.41;6167396;23;20631;-80
2021/10/20 18:16:20;;;;;;;4.28;2.65;;;;;;;18.04;55.43;95119.22;6051258;23;20530;-80
2021/10/20 18:18:55;;;;;;;2.70;2.50;;;;;;;18.00;55.70;95116.28;6151418;23;20159;-80
2021/10/20 18:22:18;;;;;;;2.97;2.65;;;;;;;18.00;56.08;95113.69;6152527;23;20242;-81
2021/10/20 19:01:50;;;;;;;3.50;3.20;;;;;;;17.78;57.37;95060.66;5834350;23;20626;-88
2021/10/20 19:04:18;;;;;;;3.88;3.30;;;;;;;17.78;57.37;95052.84;6154779;23;20159;-89
2021/10/20 19:06:46;;;;;;;4.13;3.05;;;;;;;17.72;57.91;95049.38;6155256;23;20179;-86
2021/10/20 19:09:12;;;;;;;4.05;3.10;;;;;;;17.69;58.18;95049.06;6154417;23;20269;-85
2021/10/20 19:11:39;;;;;;;4.00;2.97;;;;;;;17.65;58.09;95046.13;6155209;23;20197;-87
2021/10/20 19:14:08;;;;;;;3.35;3.05;;;;;;;17.63;57.96;95042.94;6154006;23;20221;-87
2021/10/20 19:16:34;;;;;;;3.42;3.10;;;;;;;17.63;57.92;95039.53;6155942;23;20210;-86
2021/10/20 19:19:01;;;;;;;3.08;2.60;;;;;;;17.62;57.85;95038.75;6155391;23;20210;-87
2021/10/20 19:21:29;;;;;;;3.20;2.90;;;;;;;17.61;57.88;95032.75;6155555;23;20209;-87
2021/10/20 19:23:56;;;;;;;3.30;2.70;;;;;;;17.58;58.19;95030.63;6155497;23;20198;-85
2021/10/20 19:26:24;;;;;;;3.15;2.85;;;;;;;17.57;58.08;95025.63;6155470;23;20174;-87
2021/10/20 19:28:50;;;;;;;3.45;2.67;;;;;;;17.58;58.21;95019.41;6155094;23;20182;-85
2021/10/20 19:31:17;;;;;;;2.70;2.50;;;;;;;17.59;57.94;95008.75;6155672;23;20171;-87
2021/10/20 19:33:49;;;;;;;2.90;2.63;;;;;;;17.62;57.84;95002.31;6155370;23;20195;-87
2021/10/20 19:36:16;;;;;;;3.30;2.60;;;;;;;17.58;57.92;94994.16;6154573;23;20508;-86
2021/10/20 19:38:43;;;;;;;6.32;2.80;;;;;;;17.58;57.73;95004.59;6155465;23;20183;-84
2021/10/20 19:41:10;;;;;;;3.92;2.60;;;;;;;17.56;58.01;94996.22;6154715;23;20179;-87
2021/10/20 19:43:37;;;;;;;3.28;2.45;;;;;;;17.63;57.91;94998.69;6155438;23;20253;-87
2021/10/20 19:46:03;;;;;;;3.70;2.50;;;;;;;17.59;57.95;94994.97;6157028;23;20179;-86
2021/10/20 19:48:30;;;;;;;2.55;2.25;;;;;;;17.59;58.01;94987.16;6157515;23;20183;-87
2021/10/20 19:51:00;;;;;;;2.40;2.20;;;;;;;17.66;58.09;94979.22;6157383;23;20213;-86
2021/10/20 19:53:29;;;;;;;3.58;2.45;;;;;;;17.64;57.92;94976.84;6152656;23;20218;-87
2021/10/20 19:55:57;;;;;;;2.78;2.58;;;;;;;17.65;57.92;94970.63;6127828;23;20176;-88
2021/10/20 19:58:23;;;;;;;2.60;2.40;;;;;;;17.66;57.71;94963.59;6127833;23;20179;-88
2021/10/20 20:00:51;;;;;;;2.63;2.42;;;;;;;17.69;57.90;94963.16;6128331;23;20187;-87
2021/10/20 20:03:18;;;;;;;3.38;2.30;;;;;;;17.69;57.69;94957.94;6127262;23;20263;-84
2021/10/20 20:05:44;;;;;;;3.00;2.58;;;;;;;17.69;57.73;94957.94;6127989;23;20186;-87
2021/10/20 20:08:10;;;;;;;2.67;2.47;;;;;;;17.65;57.63;94955.00;6127929;23;20185;-86
2021/10/20 20:10:37;;;;;;;3.13;2.45;;;;;;;17.68;57.54;94951.16;6127872;23;20176;-86
2021/10/20 20:13:05;;;;;;;2.97;2.50;;;;;;;17.65;57.93;94943.81;6127491;23;20196;-86
2021/10/20 20:15:32;;;;;;;4.55;2.55;;;;;;;17.65;58.08;94946.41;6127817;23;20784;-87
2021/10/20 20:17:58;;;;;;;2.67;2.42;;;;;;;17.64;57.90;94937.81;6127431;23;20756;-87
2021/10/20 20:20:25;;;;;;;2.70;2.50;;;;;;;17.62;57.98;94921.59;6128257;23;20211;-86
2021/10/20 20:22:57;;;;;;;3.10;2.83;;;;;;;17.67;58.00;94928.75;6127891;23;20203;-85
2021/10/20 20:25:24;;;;;;;3.00;2.42;;;;;;;17.64;57.79;94919.59;6127559;23;20187;-87
2021/10/20 20:27:50;;;;;;;4.00;2.40;;;;;;;17.61;58.08;94923.41;6128677;23;20222;-86
2021/10/20 20:30:18;;;;;;;2.45;2.25;;;;;;;17.62;58.11;94924.19;6128207;23;20172;-87
2021/10/20 20:32:45;;;;;;;2.35;2.20;;;;;;;17.65;58.04;94923.78;6128136;23;20192;-87
2021/10/20 20:35:13;;;;;;;2.90;2.60;;;;;;;17.62;58.36;94913.78;6128170;23;20184;-87
2021/10/20 20:37:40;;;;;;;3.42;2.53;;;;;;;17.57;58.47;94918.91;6127884;23;20920;-87
2021/10/20 20:40:08;;;;;;;2.60;2.40;;;;;;;17.50;58.52;94918.28;6128156;23;20179;-87
2021/10/20 20:42:35;;;;;;;2.95;2.28;;;;;;;17.53;58.12;94913.38;6127407;23;20689;-84
2021/10/20 20:45:01;;;;;;;2.60;2.28;;;;;;;17.52;58.31;94895.41;6127277;23;20367;-86
2021/10/20 20:47:29;;;;;;;5.03;2.58;;;;;;;17.50;58.71;94894.88;6127925;23;20230;-87
2021/10/20 20:49:56;;;;;;;2.40;2.20;;;;;;;17.51;58.42;94888.63;6127613;23;20647;-88
2021/10/20 20:52:22;;;;;;;2.83;2.50;;;;;;;17.52;58.18;94882.38;6127089;23;20803;-86
2021/10/20 20:54:49;;;;;;;2.50;2.30;;;;;;;17.52;58.26;94882.38;6125693;23;20242;-84
2021/10/20 20:57:15;;;;;;;2.95;2.70;;;;;;;17.49;58.52;94872.47;6127777;23;20183;-87
2021/10/20 20:59:42;;;;;;;2.85;2.38;;;;;;;17.46;58.67;94875.53;6126715;23;20239;-86
2021/10/20 21:02:08;;;;;;;2.70;2.50;;;;;;;17.42;58.65;94866.63;6126902;23;20261;-85
2021/10/20 21:04:36;;;;;;;3.80;2.78;;;;;;;17.37;58.87;94869.13;6127305;23;20188;-88
2021/10/20 21:07:02;;;;;;;2.47;2.28;;;;;;;17.17;59.68;94865.16;6127537;23;20184;-87
2021/10/20 21:09:29;;;;;;;2.90;2.60;;;;;;;17.16;59.84;94860.19;6126289;23;20179;-87
2021/10/20 21:11:55;;;;;;;3.60;2.88;;;;;;;17.15;59.59;94858.63;6127303;23;20213;-88
2021/10/20 21:14:22;;;;;;;3.13;2.83;;;;;;;17.10;59.99;94855.97;6126384;23;20179;-85
2021/10/20 21:16:56;;;;;;;2.90;2.70;;;;;;;17.07;59.98;94846.81;6127774;23;20160;-85
2021/10/20 21:19:22;;;;;;;2.80;2.60;;;;;;;16.97;59.84;94840.63;6127823;23;20175;-88
2021/10/20 21:21:50;;;;;;;6.07;2.65;;;;;;;16.91;59.95;94832.75;6127588;23;20254;-86
2021/10/20 21:24:17;;;;;;;2.95;2.65;;;;;;;16.95;59.82;94832.25;6127719;23;20672;-87
2021/10/20 21:26:43;;;;;;;2.60;2.40;;;;;;;16.93;59.86;94820.28;6127774;23;20187;-87
2021/10/20 21:29:10;;;;;;;2.85;2.47;;;;;;;16.93;60.13;94822.88;6127537;23;20516;-87
2021/10/20 21:31:38;;;;;;;2.78;2.58;;;;;;;16.89;59.93;94821.00;6127669;23;20183;-87
2021/10/20 21:34:06;;;;;;;3.30;2.60;;;;;;;16.81;60.10;94814.38;6127199;23;20175;-88
2021/10/20 21:36:32;;;;;;;3.65;2.65;;;;;;;16.82;59.88;94810.75;6127598;23;20183;-87
2021/10/20 21:39:07;;;;;;;3.15;2.50;;;;;;;16.83;60.06;94812.31;6126940;23;20638;-85
2021/10/20 21:41:33;;;;;;;2.60;2.40;;;;;;;16.86;59.50;94800.69;6127452;23;20179;-84
2021/10/20 21:44:00;;;;;;;4.18;2.60;;;;;;;16.89;59.64;94797.59;6126341;23;20260;-85
2021/10/20 21:46:26;;;;;;;2.65;2.35;;;;;;;16.86;60.06;94795.47;6126927;23;20491;-85
2021/10/20 21:48:53;;;;;;;2.60;2.40;;;;;;;16.83;59.59;94785.53;6127724;23;20207;-87
2021/10/20 21:51:19;;;;;;;2.40;2.20;;;;;;;16.74;60.14;94772.13;6126784;23;20184;-85
2021/10/20 21:53:46;;;;;;;2.50;2.30;;;;;;;16.66;59.94;94762.13;6126028;23;20607;-85
2021/10/20 21:56:13;;;;;;;2.60;2.40;;;;;;;16.62;59.36;94762.78;6127170;23;20186;-88
2021/10/20 21:58:40;;;;;;;3.53;2.08;;;;;;;16.55;58.93;94748.13;6127433;23;20183;-84
2021/10/20 22:01:08;;;;;;;2.47;2.10;;;;;;;16.55;58.58;94748.13;6127435;23;20179;-87
2021/10/20 22:03:34;;;;;;;2.05;1.88;;;;;;;16.56;57.95;94749.69;6126180;23;20215;-84
2021/10/20 22:06:01;;;;;;;2.20;2.00;;;;;;;16.58;57.42;94737.25;6126517;23;20207;-87
2021/10/20 22:08:28;;;;;;;2.30;1.98;;;;;;;16.61;57.60;94738.59;6127510;23;20180;-87
2021/10/20 22:10:59;;;;;;;2.05;1.85;;;;;;;16.70;57.72;94732.03;6126578;23;20176;-86